createdAt,value
2022-07-28T00:00:33.899Z,1019.2
2022-07-28T00:06:14.451Z,1020.3
2022-07-28T00:11:55.354Z,1020.5
2022-07-28T00:17:35.542Z,1020.6
2022-07-28T00:23:15.761Z,1020.7
2022-07-28T00:28:55.893Z,1020.6
2022-07-28T00:34:40.915Z,1020.5
2022-07-28T00:40:23.115Z,1020.7
2022-07-28T00:46:03.841Z,1020.7
2022-07-28T00:51:44.075Z,1020.7
2022-07-28T00:57:24.242Z,1020.7
2022-07-28T01:03:05.467Z,1020.7
2022-07-28T01:08:46.331Z,1020.7
2022-07-28T01:14:26.633Z,1020.8
2022-07-28T01:20:07.039Z,1020.9
2022-07-28T01:25:49.042Z,1020.9
2022-07-28T01:31:29.734Z,1021
2022-07-28T01:37:10.690Z,1020.9
2022-07-28T01:42:52.231Z,1020.9
2022-07-28T01:48:32.908Z,1021
2022-07-28T01:54:14.507Z,1020.9
2022-07-28T01:59:56.065Z,1020.8
2022-07-28T02:05:36.262Z,1020.8
2022-07-28T02:11:16.432Z,1020.9
2022-07-28T02:16:56.848Z,1020.9
2022-07-28T02:22:37.285Z,1021
2022-07-28T02:28:17.793Z,1020.9
2022-07-28T02:34:12.882Z,1021
2022-07-28T02:40:01.105Z,1020.9
2022-07-28T02:45:41.339Z,1021.1
2022-07-28T02:51:21.416Z,1021.2
2022-07-28T02:57:01.773Z,1021.3
2022-07-28T03:02:42.142Z,1021.5
2022-07-28T03:08:22.734Z,1021.7
2022-07-28T03:14:02.904Z,1022
2022-07-28T03:19:43.320Z,1022.1
2022-07-28T03:25:23.438Z,1022.2
2022-07-28T03:31:04.317Z,1022.3
2022-07-28T03:36:45.602Z,1022.3
2022-07-28T03:42:26.272Z,1022.5
2022-07-28T03:48:06.668Z,1022.5
2022-07-28T03:58:48.057Z,1022.6
2022-07-28T04:04:28.748Z,1022.7
2022-07-28T04:10:09.396Z,1022.7
2022-07-28T04:15:50.079Z,1022.7
2022-07-28T04:21:30.645Z,1022.9
2022-07-28T04:27:11.418Z,1022.9
2022-07-28T04:32:51.786Z,1022.9
2022-07-28T04:38:32.311Z,1023
2022-07-28T04:44:15.053Z,1022.9
2022-07-28T04:49:57.066Z,1022
2022-07-28T04:55:38.928Z,1020.4
2022-07-28T05:01:19.953Z,1019.8
2022-07-28T05:07:12.987Z,1019.6
2022-07-28T05:12:53.591Z,1019.5
2022-07-28T05:18:34.450Z,1020
2022-07-28T05:24:16.096Z,1020.3
2022-07-28T05:29:58.101Z,1020.7
2022-07-28T05:35:38.563Z,1021
2022-07-28T05:46:38.274Z,1021.3
2022-07-28T05:52:18.997Z,1020.8
2022-07-28T05:57:59.669Z,1020.1
2022-07-28T06:03:42.898Z,1019.3
2022-07-28T06:09:24.458Z,1018
2022-07-28T06:15:07.104Z,1017.8
2022-07-28T06:25:51.093Z,1017.7
2022-07-28T06:31:32.774Z,1017.7
2022-07-28T06:37:13.659Z,1017.8
2022-07-28T06:42:55.071Z,1017.9
2022-07-28T06:48:35.795Z,1017.8
2022-07-28T06:54:18.482Z,1017.9
2022-07-28T07:00:03.756Z,1017.8
2022-07-28T07:05:53.178Z,1017.8
2022-07-28T07:11:33.715Z,1017.8
2022-07-28T07:17:14.438Z,1017.7
2022-07-28T07:22:54.563Z,1017.7
2022-07-28T07:28:34.452Z,1017.7
2022-07-28T07:34:15.977Z,1017.7
2022-07-28T07:39:58.542Z,1017.6
2022-07-28T07:45:38.386Z,1017.6
2022-07-28T07:51:19.413Z,1017.6
2022-07-28T07:57:00.449Z,1017.5
2022-07-28T08:02:40.673Z,1017.5
2022-07-28T08:08:34.093Z,1017.3
2022-07-28T08:14:28.719Z,1017.3
2022-07-28T08:20:09.192Z,1017.4
2022-07-28T08:25:50.432Z,1017.5
2022-07-28T08:31:38.336Z,1017.4
2022-07-28T08:37:21.412Z,1017.5
2022-07-28T08:43:04.098Z,1017.6
2022-07-28T08:48:44.473Z,1017.6
2022-07-28T08:54:28.683Z,1017.5
2022-07-28T09:00:16.150Z,1017.5
2022-07-28T09:05:57.315Z,1017.3
2022-07-28T09:11:37.352Z,1017.2
2022-07-28T09:17:17.633Z,1017.3
2022-07-28T09:22:58.529Z,1017.2
2022-07-28T09:28:38.510Z,1017.2
2022-07-28T09:34:25.712Z,1017.3
2022-07-28T09:40:11.043Z,1017.2
2022-07-28T09:45:51.350Z,1017.1
2022-07-28T09:51:32.619Z,1017.1
2022-07-28T09:57:15.217Z,1017
2022-07-28T10:03:01.260Z,1016.9
2022-07-28T10:08:46.285Z,1016.9
2022-07-28T10:14:26.735Z,1016.8
2022-07-28T10:20:18.783Z,1016.8
2022-07-28T10:25:59.692Z,1016.8
2022-07-28T10:31:56.488Z,1016.8
2022-07-28T10:37:37.099Z,1016.7
2022-07-28T10:43:17.369Z,1016.8
2022-07-28T10:49:10.616Z,1016.7
2022-07-28T10:54:53.962Z,1016.6
2022-07-28T11:01:05.379Z,1016.7
2022-07-28T11:07:13.332Z,1016.6
2022-07-28T11:12:55.361Z,1016.5
2022-07-28T11:18:35.704Z,1016.5
2022-07-28T11:24:18.674Z,1016.4
2022-07-28T11:29:59.063Z,1016.4
2022-07-28T11:35:39.369Z,1016.3
2022-07-28T11:41:20.430Z,1016.3
2022-07-28T11:47:01.327Z,1016.3
2022-07-28T11:52:42.130Z,1016.3
2022-07-28T11:58:25.747Z,1016.2
2022-07-28T12:04:10.660Z,1016.1
2022-07-28T12:09:54.907Z,1016.1
2022-07-28T12:15:35.755Z,1016
2022-07-28T12:21:16.093Z,1015.9
2022-07-28T12:26:56.980Z,1016
2022-07-28T12:32:37.313Z,1015.8
2022-07-28T12:38:18.174Z,1015.8
2022-07-28T12:43:58.579Z,1015.8
2022-07-28T12:49:39.528Z,1015.8
2022-07-28T12:55:20.002Z,1015.8
2022-07-28T13:01:01.030Z,1015.8
2022-07-28T13:06:42.893Z,1015.8
2022-07-28T13:12:24.563Z,1015.7
2022-07-28T13:18:11.296Z,1015.7
2022-07-28T13:23:52.234Z,1015.7
2022-07-28T13:29:32.375Z,1015.7
2022-07-28T13:35:21.082Z,1015.6
2022-07-28T13:41:02.369Z,1015.6
2022-07-28T13:46:50.275Z,1015.6
2022-07-28T13:52:37.681Z,1015.4
2022-07-28T13:58:18.321Z,1015.4
2022-07-28T14:03:59.049Z,1015.5
2022-07-28T14:09:40.559Z,1015.4
2022-07-28T14:15:20.763Z,1015.3
2022-07-28T14:21:00.853Z,1015.2
2022-07-28T14:26:41.924Z,1015.3
2022-07-28T14:32:22.278Z,1015.3
2022-07-28T14:38:54.401Z,1015.2
2022-07-28T14:44:39.065Z,1015.2
2022-07-28T14:50:19.386Z,1015.2
2022-07-28T14:56:00.151Z,1015.2
2022-07-28T15:01:41.975Z,1015.2
2022-07-28T15:07:22.982Z,1015.1
2022-07-28T15:13:03.781Z,1015
2022-07-28T15:18:46.415Z,1015
2022-07-28T15:24:28.091Z,1015
2022-07-28T15:30:08.612Z,1015
2022-07-28T15:36:00.259Z,1015
2022-07-28T15:41:40.940Z,1014.9
2022-07-28T15:47:21.337Z,1014.9
2022-07-28T15:53:01.527Z,1015
2022-07-28T15:58:42.163Z,1014.9
2022-07-28T16:04:24.248Z,1014.9
2022-07-28T16:10:04.501Z,1014.8
2022-07-28T16:15:47.080Z,1014.9
2022-07-28T16:21:28.751Z,1014.8
2022-07-28T16:27:08.977Z,1014.8
2022-07-28T16:32:49.880Z,1014.7
2022-07-28T16:38:31.202Z,1014.8
2022-07-28T16:44:11.971Z,1014.9
2022-07-28T16:49:53.900Z,1014.8
2022-07-28T16:55:37.550Z,1014.8
2022-07-28T17:01:19.820Z,1014.8
2022-07-28T17:07:03.354Z,1014.8
2022-07-28T17:12:50.745Z,1014.8
2022-07-28T17:18:31.047Z,1014.8
2022-07-28T17:24:12.470Z,1014.8
2022-07-28T17:29:57.287Z,1014.7
2022-07-28T17:35:38.314Z,1014.7
2022-07-28T17:41:18.955Z,1014.7
2022-07-28T17:46:59.433Z,1014.8
2022-07-28T17:52:40.201Z,1014.8
2022-07-28T17:58:30.590Z,1014.7
2022-07-28T18:04:17.309Z,1014.7
2022-07-28T18:09:59.956Z,1014.6
2022-07-28T18:15:40.314Z,1014.7
2022-07-28T18:21:20.740Z,1014.7
2022-07-28T18:27:03.596Z,1014.8
2022-07-28T18:32:44.307Z,1014.7
2022-07-28T18:38:24.477Z,1014.7
2022-07-28T18:44:04.537Z,1014.8
2022-07-28T18:49:44.803Z,1014.7
2022-07-28T18:55:27.865Z,1014.8
2022-07-28T19:01:14.508Z,1014.7
2022-07-28T19:06:55.372Z,1014.8
2022-07-28T19:12:35.485Z,1014.8
2022-07-28T19:18:15.585Z,1014.8
2022-07-28T19:23:55.667Z,1014.9
2022-07-28T19:29:35.775Z,1015
2022-07-28T19:35:17.837Z,1015
2022-07-28T19:40:59.082Z,1015.2
2022-07-28T19:46:42.995Z,1015.3
2022-07-28T19:52:31.425Z,1015.4
2022-07-28T19:58:11.713Z,1015.5
2022-07-28T20:04:05.739Z,1015.6
2022-07-28T20:09:46.657Z,1015.6
2022-07-28T20:15:30.157Z,1015.5
2022-07-28T20:21:11.333Z,1015.6
2022-07-28T20:26:51.993Z,1015.6
2022-07-28T20:32:35.326Z,1015.5
2022-07-28T20:38:16.078Z,1015.6
2022-07-28T20:44:30.097Z,1015.5
2022-07-28T20:50:12.442Z,1015.6
2022-07-28T20:55:52.276Z,1015.6
2022-07-28T21:01:32.847Z,1015.6
2022-07-28T21:07:13.390Z,1015.7
2022-07-28T21:12:54.082Z,1015.7
2022-07-28T21:18:39.796Z,1015.7
2022-07-28T21:24:20.030Z,1015.7
2022-07-28T21:30:00.378Z,1015.6
2022-07-28T21:35:43.283Z,1015.7
2022-07-28T21:41:23.611Z,1015.7
2022-07-28T21:47:04.755Z,1015.7
2022-07-28T21:52:44.976Z,1015.8
2022-07-28T21:58:28.554Z,1015.8
2022-07-28T22:04:08.884Z,1015.8
2022-07-28T22:09:49.654Z,1015.7
2022-07-28T22:15:29.744Z,1015.8
2022-07-28T22:21:09.887Z,1015.7
2022-07-28T22:26:50.196Z,1015.7
2022-07-28T22:32:30.375Z,1015.6
2022-07-28T22:38:10.828Z,1015.7
2022-07-28T22:43:53.472Z,1015.6
2022-07-28T22:49:34.073Z,1015.6
2022-07-28T22:55:17.543Z,1015.6
2022-07-28T23:01:02.099Z,1015.6
2022-07-28T23:06:47.681Z,1015.5
2022-07-28T23:12:28.065Z,1015.5
2022-07-28T23:18:08.209Z,1015.5
2022-07-28T23:23:49.018Z,1015.3
2022-07-28T23:29:29.327Z,1015.3
2022-07-28T23:35:09.510Z,1015.3
2022-07-28T23:40:54.341Z,1015.3
2022-07-28T23:46:35.575Z,1015.3
2022-07-28T23:52:16.440Z,1015.2
2022-07-28T23:57:56.802Z,1015.1
